sensor_id;sensor_type;location;lat;lon;timestamp;P1;durP1;ratioP1;P2;durP2;ratioP2
52608;SDS011;38503;48.544;12.142;2022-12-16T00:01:18;70.30;;;39.23;;
52608;SDS011;38503;48.544;12.142;2022-12-16T00:03:49;61.87;;;38.53;;
52608;SDS011;38503;48.544;12.142;2022-12-16T00:06:21;65.33;;;38.70;;
52608;SDS011;38503;48.544;12.142;2022-12-16T00:08:49;66.67;;;38.83;;
52608;SDS011;38503;48.544;12.142;2022-12-16T00:11:17;68.30;;;40.43;;
52608;SDS011;38503;48.544;12.142;2022-12-16T00:13:45;66.63;;;39.37;;
52608;SDS011;38503;48.544;12.142;2022-12-16T00:16:13;63.47;;;39.30;;
52608;SDS011;38503;48.544;12.142;2022-12-16T00:18:42;66.40;;;39.43;;
52608;SDS011;38503;48.544;12.142;2022-12-16T00:21:10;62.00;;;36.60;;
52608;SDS011;38503;48.544;12.142;2022-12-16T00:23:37;64.53;;;38.10;;
52608;SDS011;38503;48.544;12.142;2022-12-16T00:26:04;61.70;;;36.70;;
52608;SDS011;38503;48.544;12.142;2022-12-16T00:28:39;60.57;;;36.67;;
52608;SDS011;38503;48.544;12.142;2022-12-16T00:31:06;62.97;;;37.43;;
52608;SDS011;38503;48.544;12.142;2022-12-16T00:33:33;61.40;;;37.70;;
52608;SDS011;38503;48.544;12.142;2022-12-16T00:36:01;63.17;;;38.10;;
52608;SDS011;38503;48.544;12.142;2022-12-16T00:38:28;58.23;;;36.07;;
52608;SDS011;38503;48.544;12.142;2022-12-16T00:40:55;67.30;;;37.93;;
52608;SDS011;38503;48.544;12.142;2022-12-16T00:43:22;60.13;;;36.50;;
52608;SDS011;38503;48.544;12.142;2022-12-16T00:45:48;59.20;;;35.60;;
52608;SDS011;38503;48.544;12.142;2022-12-16T00:48:17;62.53;;;36.37;;
52608;SDS011;38503;48.544;12.142;2022-12-16T00:50:48;53.60;;;33.00;;
52608;SDS011;38503;48.544;12.142;2022-12-16T00:53:17;53.33;;;35.30;;
52608;SDS011;38503;48.544;12.142;2022-12-16T00:55:48;58.33;;;33.17;;
52608;SDS011;38503;48.544;12.142;2022-12-16T00:58:17;53.50;;;33.20;;
52608;SDS011;38503;48.544;12.142;2022-12-16T01:00:44;51.73;;;33.63;;
52608;SDS011;38503;48.544;12.142;2022-12-16T01:03:10;56.73;;;33.57;;
52608;SDS011;38503;48.544;12.142;2022-12-16T01:05:46;54.30;;;34.30;;
52608;SDS011;38503;48.544;12.142;2022-12-16T01:08:13;54.67;;;33.10;;
52608;SDS011;38503;48.544;12.142;2022-12-16T01:10:40;54.97;;;32.47;;
52608;SDS011;38503;48.544;12.142;2022-12-16T01:13:07;54.37;;;34.30;;
52608;SDS011;38503;48.544;12.142;2022-12-16T01:15:34;54.57;;;34.30;;
52608;SDS011;38503;48.544;12.142;2022-12-16T01:18:02;52.97;;;32.63;;
52608;SDS011;38503;48.544;12.142;2022-12-16T01:20:31;54.53;;;33.57;;
52608;SDS011;38503;48.544;12.142;2022-12-16T01:22:58;54.20;;;33.07;;
52608;SDS011;38503;48.544;12.142;2022-12-16T01:25:25;49.83;;;32.00;;
52608;SDS011;38503;48.544;12.142;2022-12-16T01:27:52;55.70;;;33.47;;
52608;SDS011;38503;48.544;12.142;2022-12-16T01:30:20;54.17;;;32.37;;
52608;SDS011;38503;48.544;12.142;2022-12-16T01:32:47;52.27;;;32.37;;
52608;SDS011;38503;48.544;12.142;2022-12-16T01:35:15;50.93;;;31.60;;
52608;SDS011;38503;48.544;12.142;2022-12-16T01:38:03;47.53;;;30.33;;
52608;SDS011;38503;48.544;12.142;2022-12-16T01:40:30;54.97;;;33.30;;
52608;SDS011;38503;48.544;12.142;2022-12-16T01:42:56;55.43;;;33.13;;
52608;SDS011;38503;48.544;12.142;2022-12-16T01:47:50;56.70;;;32.57;;
52608;SDS011;38503;48.544;12.142;2022-12-16T01:50:21;55.00;;;33.90;;
52608;SDS011;38503;48.544;12.142;2022-12-16T01:52:50;54.80;;;33.07;;
52608;SDS011;38503;48.544;12.142;2022-12-16T01:55:21;56.73;;;34.67;;
52608;SDS011;38503;48.544;12.142;2022-12-16T01:57:54;60.70;;;35.17;;
52608;SDS011;38503;48.544;12.142;2022-12-16T02:00:27;60.07;;;35.90;;
52608;SDS011;38503;48.544;12.142;2022-12-16T02:02:54;61.07;;;36.07;;
52608;SDS011;38503;48.544;12.142;2022-12-16T02:05:22;63.20;;;36.63;;
52608;SDS011;38503;48.544;12.142;2022-12-16T02:10:50;65.60;;;36.90;;
52608;SDS011;38503;48.544;12.142;2022-12-16T02:21:17;60.37;;;36.93;;
52608;SDS011;38503;48.544;12.142;2022-12-16T02:23:58;63.20;;;36.93;;
52608;SDS011;38503;48.544;12.142;2022-12-16T02:26:55;63.27;;;36.73;;
52608;SDS011;38503;48.544;12.142;2022-12-16T02:38:17;63.73;;;35.07;;
52608;SDS011;38503;48.544;12.142;2022-12-16T02:40:58;63.43;;;36.83;;
52608;SDS011;38503;48.544;12.142;2022-12-16T02:46:13;61.00;;;36.10;;
52608;SDS011;38503;48.544;12.142;2022-12-16T02:48:41;73.27;;;39.07;;
52608;SDS011;38503;48.544;12.142;2022-12-16T02:51:08;61.00;;;36.67;;
52608;SDS011;38503;48.544;12.142;2022-12-16T02:53:35;64.57;;;38.33;;
52608;SDS011;38503;48.544;12.142;2022-12-16T03:06:55;61.23;;;36.70;;
52608;SDS011;38503;48.544;12.142;2022-12-16T03:09:24;64.73;;;38.03;;
52608;SDS011;38503;48.544;12.142;2022-12-16T03:11:56;70.20;;;39.27;;
52608;SDS011;38503;48.544;12.142;2022-12-16T03:14:26;73.73;;;40.10;;
52608;SDS011;38503;48.544;12.142;2022-12-16T03:16:56;74.33;;;41.80;;
52608;SDS011;38503;48.544;12.142;2022-12-16T03:19:27;72.23;;;40.57;;
52608;SDS011;38503;48.544;12.142;2022-12-16T03:24:32;74.93;;;42.53;;
52608;SDS011;38503;48.544;12.142;2022-12-16T03:29:49;75.37;;;41.50;;
52608;SDS011;38503;48.544;12.142;2022-12-16T03:32:45;77.00;;;41.17;;
52608;SDS011;38503;48.544;12.142;2022-12-16T03:35:18;82.53;;;42.43;;
52608;SDS011;38503;48.544;12.142;2022-12-16T03:38:05;75.00;;;41.43;;
52608;SDS011;38503;48.544;12.142;2022-12-16T03:40:34;85.80;;;42.07;;
52608;SDS011;38503;48.544;12.142;2022-12-16T03:43:07;79.53;;;44.13;;
52608;SDS011;38503;48.544;12.142;2022-12-16T03:45:37;78.10;;;41.97;;
52608;SDS011;38503;48.544;12.142;2022-12-16T03:48:07;77.83;;;42.33;;
52608;SDS011;38503;48.544;12.142;2022-12-16T03:50:35;82.10;;;42.80;;
52608;SDS011;38503;48.544;12.142;2022-12-16T03:53:03;76.23;;;42.73;;
52608;SDS011;38503;48.544;12.142;2022-12-16T03:55:30;83.83;;;43.20;;
52608;SDS011;38503;48.544;12.142;2022-12-16T03:57:58;78.20;;;43.30;;
52608;SDS011;38503;48.544;12.142;2022-12-16T04:00:25;85.00;;;44.63;;
52608;SDS011;38503;48.544;12.142;2022-12-16T04:02:52;79.10;;;43.80;;
52608;SDS011;38503;48.544;12.142;2022-12-16T04:05:19;85.53;;;45.63;;
52608;SDS011;38503;48.544;12.142;2022-12-16T04:07:46;87.83;;;45.20;;
52608;SDS011;38503;48.544;12.142;2022-12-16T04:10:13;85.37;;;44.53;;
52608;SDS011;38503;48.544;12.142;2022-12-16T04:12:40;82.73;;;44.30;;
52608;SDS011;38503;48.544;12.142;2022-12-16T04:15:26;82.07;;;43.67;;
52608;SDS011;38503;48.544;12.142;2022-12-16T04:18:15;80.03;;;42.43;;
52608;SDS011;38503;48.544;12.142;2022-12-16T04:21:05;74.93;;;42.20;;
52608;SDS011;38503;48.544;12.142;2022-12-16T04:23:51;78.07;;;42.23;;
52608;SDS011;38503;48.544;12.142;2022-12-16T04:26:41;80.77;;;42.23;;
52608;SDS011;38503;48.544;12.142;2022-12-16T04:29:26;77.00;;;42.63;;
52608;SDS011;38503;48.544;12.142;2022-12-16T04:31:53;78.70;;;43.20;;
52608;SDS011;38503;48.544;12.142;2022-12-16T04:34:20;85.73;;;44.83;;
52608;SDS011;38503;48.544;12.142;2022-12-16T04:36:51;73.70;;;41.07;;
52608;SDS011;38503;48.544;12.142;2022-12-16T04:39:38;83.63;;;43.50;;
52608;SDS011;38503;48.544;12.142;2022-12-16T04:42:24;77.20;;;41.97;;
52608;SDS011;38503;48.544;12.142;2022-12-16T04:45:10;84.67;;;43.90;;
52608;SDS011;38503;48.544;12.142;2022-12-16T04:47:55;80.43;;;43.60;;
52608;SDS011;38503;48.544;12.142;2022-12-16T04:50:41;82.63;;;44.07;;
52608;SDS011;38503;48.544;12.142;2022-12-16T04:53:27;76.90;;;43.57;;
52608;SDS011;38503;48.544;12.142;2022-12-16T04:56:34;78.73;;;44.07;;
52608;SDS011;38503;48.544;12.142;2022-12-16T04:59:19;75.13;;;41.53;;
52608;SDS011;38503;48.544;12.142;2022-12-16T05:02:16;75.50;;;42.80;;
52608;SDS011;38503;48.544;12.142;2022-12-16T05:05:01;89.20;;;44.40;;
52608;SDS011;38503;48.544;12.142;2022-12-16T05:07:47;73.70;;;43.23;;
52608;SDS011;38503;48.544;12.142;2022-12-16T05:10:34;85.90;;;42.53;;
52608;SDS011;38503;48.544;12.142;2022-12-16T05:13:21;79.30;;;44.13;;
52608;SDS011;38503;48.544;12.142;2022-12-16T05:16:06;78.47;;;44.10;;
52608;SDS011;38503;48.544;12.142;2022-12-16T05:18:52;79.63;;;41.83;;
52608;SDS011;38503;48.544;12.142;2022-12-16T05:21:37;84.20;;;45.10;;
52608;SDS011;38503;48.544;12.142;2022-12-16T05:24:22;78.40;;;43.43;;
52608;SDS011;38503;48.544;12.142;2022-12-16T05:27:07;75.00;;;43.87;;
52608;SDS011;38503;48.544;12.142;2022-12-16T05:29:53;83.63;;;44.30;;
52608;SDS011;38503;48.544;12.142;2022-12-16T05:32:38;75.97;;;42.27;;
52608;SDS011;38503;48.544;12.142;2022-12-16T05:35:24;79.80;;;40.90;;
52608;SDS011;38503;48.544;12.142;2022-12-16T05:38:09;78.13;;;43.23;;
52608;SDS011;38503;48.544;12.142;2022-12-16T05:40:54;75.93;;;43.10;;
52608;SDS011;38503;48.544;12.142;2022-12-16T05:43:40;79.47;;;42.30;;
52608;SDS011;38503;48.544;12.142;2022-12-16T05:46:25;76.80;;;42.13;;
52608;SDS011;38503;48.544;12.142;2022-12-16T05:49:11;80.30;;;42.50;;
52608;SDS011;38503;48.544;12.142;2022-12-16T05:51:57;75.53;;;42.20;;
52608;SDS011;38503;48.544;12.142;2022-12-16T05:54:46;78.17;;;41.70;;
52608;SDS011;38503;48.544;12.142;2022-12-16T05:57:31;73.27;;;42.27;;
52608;SDS011;38503;48.544;12.142;2022-12-16T06:00:17;74.63;;;40.37;;
52608;SDS011;38503;48.544;12.142;2022-12-16T06:03:02;78.70;;;41.10;;
52608;SDS011;38503;48.544;12.142;2022-12-16T06:05:57;72.27;;;39.83;;
52608;SDS011;38503;48.544;12.142;2022-12-16T06:08:42;72.50;;;40.70;;
52608;SDS011;38503;48.544;12.142;2022-12-16T06:11:28;75.50;;;41.70;;
52608;SDS011;38503;48.544;12.142;2022-12-16T06:14:13;75.00;;;40.50;;
52608;SDS011;38503;48.544;12.142;2022-12-16T06:16:59;77.57;;;42.97;;
52608;SDS011;38503;48.544;12.142;2022-12-16T06:19:44;72.43;;;42.00;;
52608;SDS011;38503;48.544;12.142;2022-12-16T06:22:30;74.23;;;40.83;;
52608;SDS011;38503;48.544;12.142;2022-12-16T06:25:15;78.93;;;43.53;;
52608;SDS011;38503;48.544;12.142;2022-12-16T06:28:01;78.27;;;41.97;;
52608;SDS011;38503;48.544;12.142;2022-12-16T06:30:46;77.33;;;43.27;;
52608;SDS011;38503;48.544;12.142;2022-12-16T06:33:32;74.50;;;41.17;;
52608;SDS011;38503;48.544;12.142;2022-12-16T06:36:20;78.80;;;42.87;;
52608;SDS011;38503;48.544;12.142;2022-12-16T06:39:07;82.53;;;44.47;;
52608;SDS011;38503;48.544;12.142;2022-12-16T06:41:52;77.40;;;44.23;;
52608;SDS011;38503;48.544;12.142;2022-12-16T06:44:38;72.17;;;40.47;;
52608;SDS011;38503;48.544;12.142;2022-12-16T06:47:23;78.63;;;43.03;;
52608;SDS011;38503;48.544;12.142;2022-12-16T06:50:09;73.10;;;41.23;;
52608;SDS011;38503;48.544;12.142;2022-12-16T06:52:54;76.30;;;42.07;;
52608;SDS011;38503;48.544;12.142;2022-12-16T06:55:39;76.33;;;43.63;;
52608;SDS011;38503;48.544;12.142;2022-12-16T06:58:25;79.27;;;43.27;;
52608;SDS011;38503;48.544;12.142;2022-12-16T07:01:10;85.23;;;42.93;;
52608;SDS011;38503;48.544;12.142;2022-12-16T07:03:56;81.40;;;43.10;;
52608;SDS011;38503;48.544;12.142;2022-12-16T07:06:42;95.17;;;50.40;;
52608;SDS011;38503;48.544;12.142;2022-12-16T07:09:27;77.07;;;42.73;;
52608;SDS011;38503;48.544;12.142;2022-12-16T07:12:13;78.00;;;41.83;;
52608;SDS011;38503;48.544;12.142;2022-12-16T07:14:58;75.93;;;43.00;;
52608;SDS011;38503;48.544;12.142;2022-12-16T07:17:44;79.40;;;43.40;;
52608;SDS011;38503;48.544;12.142;2022-12-16T07:20:29;72.30;;;40.90;;
52608;SDS011;38503;48.544;12.142;2022-12-16T07:23:15;81.83;;;43.97;;
52608;SDS011;38503;48.544;12.142;2022-12-16T07:26:01;70.83;;;40.03;;
52608;SDS011;38503;48.544;12.142;2022-12-16T07:28:47;81.47;;;44.20;;
52608;SDS011;38503;48.544;12.142;2022-12-16T07:31:32;82.03;;;44.57;;
52608;SDS011;38503;48.544;12.142;2022-12-16T07:34:17;72.33;;;42.53;;
52608;SDS011;38503;48.544;12.142;2022-12-16T07:37:08;75.73;;;42.10;;
52608;SDS011;38503;48.544;12.142;2022-12-16T07:39:54;79.63;;;45.50;;
52608;SDS011;38503;48.544;12.142;2022-12-16T07:42:40;81.30;;;44.13;;
52608;SDS011;38503;48.544;12.142;2022-12-16T07:45:40;80.30;;;43.27;;
52608;SDS011;38503;48.544;12.142;2022-12-16T07:48:25;73.90;;;41.53;;
52608;SDS011;38503;48.544;12.142;2022-12-16T07:51:10;78.13;;;42.67;;
52608;SDS011;38503;48.544;12.142;2022-12-16T07:53:56;83.70;;;45.53;;
52608;SDS011;38503;48.544;12.142;2022-12-16T07:56:41;83.63;;;45.90;;
52608;SDS011;38503;48.544;12.142;2022-12-16T07:59:27;78.83;;;42.73;;
52608;SDS011;38503;48.544;12.142;2022-12-16T08:02:15;75.00;;;41.53;;
52608;SDS011;38503;48.544;12.142;2022-12-16T08:05:21;75.73;;;41.97;;
52608;SDS011;38503;48.544;12.142;2022-12-16T08:08:07;83.73;;;43.43;;
52608;SDS011;38503;48.544;12.142;2022-12-16T08:10:52;76.30;;;42.97;;
52608;SDS011;38503;48.544;12.142;2022-12-16T08:13:37;76.80;;;42.00;;
52608;SDS011;38503;48.544;12.142;2022-12-16T08:16:22;74.00;;;41.70;;
52608;SDS011;38503;48.544;12.142;2022-12-16T08:19:08;75.03;;;41.50;;
52608;SDS011;38503;48.544;12.142;2022-12-16T08:21:53;73.37;;;41.10;;
52608;SDS011;38503;48.544;12.142;2022-12-16T08:24:39;72.23;;;41.40;;
52608;SDS011;38503;48.544;12.142;2022-12-16T08:27:24;70.70;;;40.17;;
52608;SDS011;38503;48.544;12.142;2022-12-16T08:30:10;68.83;;;39.47;;
52608;SDS011;38503;48.544;12.142;2022-12-16T08:32:55;67.43;;;40.03;;
52608;SDS011;38503;48.544;12.142;2022-12-16T08:35:45;72.47;;;40.27;;
52608;SDS011;38503;48.544;12.142;2022-12-16T08:38:31;67.63;;;38.83;;
52608;SDS011;38503;48.544;12.142;2022-12-16T08:41:18;71.20;;;39.80;;
52608;SDS011;38503;48.544;12.142;2022-12-16T08:44:03;72.87;;;40.87;;
52608;SDS011;38503;48.544;12.142;2022-12-16T08:46:50;68.03;;;40.33;;
52608;SDS011;38503;48.544;12.142;2022-12-16T08:49:36;64.77;;;39.30;;
52608;SDS011;38503;48.544;12.142;2022-12-16T08:52:27;72.20;;;38.87;;
52608;SDS011;38503;48.544;12.142;2022-12-16T08:55:13;62.60;;;40.10;;
52608;SDS011;38503;48.544;12.142;2022-12-16T08:57:58;72.17;;;38.30;;
52608;SDS011;38503;48.544;12.142;2022-12-16T09:00:44;67.47;;;38.47;;
52608;SDS011;38503;48.544;12.142;2022-12-16T09:03:33;64.33;;;36.33;;
52608;SDS011;38503;48.544;12.142;2022-12-16T09:06:19;67.13;;;36.67;;
52608;SDS011;38503;48.544;12.142;2022-12-16T09:09:07;61.00;;;37.57;;
52608;SDS011;38503;48.544;12.142;2022-12-16T09:11:53;66.60;;;36.27;;
52608;SDS011;38503;48.544;12.142;2022-12-16T09:14:39;65.77;;;37.40;;
52608;SDS011;38503;48.544;12.142;2022-12-16T09:17:27;64.67;;;38.27;;
52608;SDS011;38503;48.544;12.142;2022-12-16T09:20:31;62.07;;;36.13;;
52608;SDS011;38503;48.544;12.142;2022-12-16T09:23:32;62.50;;;36.37;;
52608;SDS011;38503;48.544;12.142;2022-12-16T09:26:17;66.43;;;38.20;;
52608;SDS011;38503;48.544;12.142;2022-12-16T09:29:03;58.13;;;34.60;;
52608;SDS011;38503;48.544;12.142;2022-12-16T09:31:48;59.23;;;35.30;;
52608;SDS011;38503;48.544;12.142;2022-12-16T09:34:34;70.90;;;38.90;;
52608;SDS011;38503;48.544;12.142;2022-12-16T09:37:19;65.30;;;36.97;;
52608;SDS011;38503;48.544;12.142;2022-12-16T09:40:05;64.07;;;37.07;;
52608;SDS011;38503;48.544;12.142;2022-12-16T09:42:53;60.97;;;34.90;;
52608;SDS011;38503;48.544;12.142;2022-12-16T09:45:58;62.97;;;38.03;;
52608;SDS011;38503;48.544;12.142;2022-12-16T09:52:17;64.10;;;36.20;;
52608;SDS011;38503;48.544;12.142;2022-12-16T09:55:04;63.50;;;37.27;;
52608;SDS011;38503;48.544;12.142;2022-12-16T09:58:01;65.27;;;37.07;;
52608;SDS011;38503;48.544;12.142;2022-12-16T10:00:46;73.90;;;40.93;;
52608;SDS011;38503;48.544;12.142;2022-12-16T10:03:38;71.50;;;40.43;;
52608;SDS011;38503;48.544;12.142;2022-12-16T10:06:32;59.50;;;36.20;;
52608;SDS011;38503;48.544;12.142;2022-12-16T10:09:34;66.43;;;38.70;;
52608;SDS011;38503;48.544;12.142;2022-12-16T10:12:29;67.80;;;38.53;;
52608;SDS011;38503;48.544;12.142;2022-12-16T10:15:44;70.23;;;40.93;;
52608;SDS011;38503;48.544;12.142;2022-12-16T10:22:11;70.63;;;39.37;;
52608;SDS011;38503;48.544;12.142;2022-12-16T10:31:10;62.83;;;35.07;;
52608;SDS011;38503;48.544;12.142;2022-12-16T10:33:59;65.53;;;37.50;;
52608;SDS011;38503;48.544;12.142;2022-12-16T10:36:45;64.23;;;37.93;;
52608;SDS011;38503;48.544;12.142;2022-12-16T10:39:40;65.43;;;38.60;;
52608;SDS011;38503;48.544;12.142;2022-12-16T10:42:31;62.07;;;35.27;;
52608;SDS011;38503;48.544;12.142;2022-12-16T10:45:42;64.87;;;36.50;;
52608;SDS011;38503;48.544;12.142;2022-12-16T10:48:29;65.43;;;35.17;;
52608;SDS011;38503;48.544;12.142;2022-12-16T10:51:22;63.60;;;35.20;;
52608;SDS011;38503;48.544;12.142;2022-12-16T10:57:08;62.90;;;35.97;;
52608;SDS011;38503;48.544;12.142;2022-12-16T11:00:20;69.37;;;38.40;;
52608;SDS011;38503;48.544;12.142;2022-12-16T11:03:24;60.83;;;35.00;;
52608;SDS011;38503;48.544;12.142;2022-12-16T11:06:12;62.43;;;36.47;;
52608;SDS011;38503;48.544;12.142;2022-12-16T11:09:32;65.90;;;35.53;;
52608;SDS011;38503;48.544;12.142;2022-12-16T11:12:26;61.57;;;35.17;;
52608;SDS011;38503;48.544;12.142;2022-12-16T11:15:17;63.43;;;36.63;;
52608;SDS011;38503;48.544;12.142;2022-12-16T11:18:15;63.27;;;35.77;;
52608;SDS011;38503;48.544;12.142;2022-12-16T11:21:19;59.40;;;35.10;;
52608;SDS011;38503;48.544;12.142;2022-12-16T11:24:15;61.30;;;34.23;;
52608;SDS011;38503;48.544;12.142;2022-12-16T11:27:23;64.83;;;35.53;;
52608;SDS011;38503;48.544;12.142;2022-12-16T11:33:05;59.07;;;35.03;;
52608;SDS011;38503;48.544;12.142;2022-12-16T11:39:02;61.67;;;34.73;;
52608;SDS011;38503;48.544;12.142;2022-12-16T11:41:50;56.80;;;34.03;;
52608;SDS011;38503;48.544;12.142;2022-12-16T11:44:42;61.60;;;34.57;;
52608;SDS011;38503;48.544;12.142;2022-12-16T11:50:31;53.57;;;31.67;;
52608;SDS011;38503;48.544;12.142;2022-12-16T11:53:33;57.53;;;33.47;;
52608;SDS011;38503;48.544;12.142;2022-12-16T11:56:25;60.77;;;33.40;;
52608;SDS011;38503;48.544;12.142;2022-12-16T11:59:23;52.37;;;32.80;;
52608;SDS011;38503;48.544;12.142;2022-12-16T12:02:57;59.83;;;32.70;;
52608;SDS011;38503;48.544;12.142;2022-12-16T12:06:04;62.07;;;33.73;;
52608;SDS011;38503;48.544;12.142;2022-12-16T12:09:08;63.73;;;35.83;;
52608;SDS011;38503;48.544;12.142;2022-12-16T12:15:32;54.50;;;31.63;;
52608;SDS011;38503;48.544;12.142;2022-12-16T12:21:37;58.13;;;34.13;;
52608;SDS011;38503;48.544;12.142;2022-12-16T12:24:38;65.40;;;35.40;;
52608;SDS011;38503;48.544;12.142;2022-12-16T12:27:39;62.30;;;35.83;;
52608;SDS011;38503;48.544;12.142;2022-12-16T12:30:41;57.67;;;35.53;;
52608;SDS011;38503;48.544;12.142;2022-12-16T12:40:03;62.00;;;32.53;;
52608;SDS011;38503;48.544;12.142;2022-12-16T12:42:56;56.67;;;33.80;;
52608;SDS011;38503;48.544;12.142;2022-12-16T12:46:03;52.30;;;30.57;;
52608;SDS011;38503;48.544;12.142;2022-12-16T12:49:01;50.93;;;30.80;;
52608;SDS011;38503;48.544;12.142;2022-12-16T12:52:08;57.17;;;32.40;;
52608;SDS011;38503;48.544;12.142;2022-12-16T12:55:11;53.17;;;31.47;;
52608;SDS011;38503;48.544;12.142;2022-12-16T12:58:05;56.00;;;33.27;;
52608;SDS011;38503;48.544;12.142;2022-12-16T13:00:54;52.83;;;31.37;;
52608;SDS011;38503;48.544;12.142;2022-12-16T13:03:42;55.63;;;33.00;;
52608;SDS011;38503;48.544;12.142;2022-12-16T13:06:34;55.33;;;31.60;;
52608;SDS011;38503;48.544;12.142;2022-12-16T13:09:31;55.97;;;32.27;;
52608;SDS011;38503;48.544;12.142;2022-12-16T13:15:34;56.17;;;30.40;;
52608;SDS011;38503;48.544;12.142;2022-12-16T13:18:28;52.23;;;30.97;;
52608;SDS011;38503;48.544;12.142;2022-12-16T13:24:44;51.27;;;29.13;;
52608;SDS011;38503;48.544;12.142;2022-12-16T13:27:45;51.17;;;29.43;;
52608;SDS011;38503;48.544;12.142;2022-12-16T13:30:36;48.37;;;29.57;;
52608;SDS011;38503;48.544;12.142;2022-12-16T13:33:39;53.10;;;31.80;;
52608;SDS011;38503;48.544;12.142;2022-12-16T13:36:33;52.23;;;30.63;;
52608;SDS011;38503;48.544;12.142;2022-12-16T13:39:26;46.83;;;29.10;;
52608;SDS011;38503;48.544;12.142;2022-12-16T13:42:33;51.93;;;30.47;;
52608;SDS011;38503;48.544;12.142;2022-12-16T13:45:38;55.70;;;32.17;;
52608;SDS011;38503;48.544;12.142;2022-12-16T13:48:27;53.93;;;31.10;;
52608;SDS011;38503;48.544;12.142;2022-12-16T13:51:54;47.53;;;30.73;;
52608;SDS011;38503;48.544;12.142;2022-12-16T13:54:54;56.13;;;31.27;;
52608;SDS011;38503;48.544;12.142;2022-12-16T13:57:50;48.27;;;28.73;;
52608;SDS011;38503;48.544;12.142;2022-12-16T14:00:41;50.67;;;28.67;;
52608;SDS011;38503;48.544;12.142;2022-12-16T14:03:43;53.47;;;30.37;;
52608;SDS011;38503;48.544;12.142;2022-12-16T14:06:32;55.93;;;30.47;;
52608;SDS011;38503;48.544;12.142;2022-12-16T14:12:37;52.90;;;30.43;;
52608;SDS011;38503;48.544;12.142;2022-12-16T14:21:59;52.33;;;29.97;;
52608;SDS011;38503;48.544;12.142;2022-12-16T14:24:55;50.60;;;30.23;;
52608;SDS011;38503;48.544;12.142;2022-12-16T14:27:53;54.57;;;31.63;;
52608;SDS011;38503;48.544;12.142;2022-12-16T14:30:38;53.83;;;31.57;;
52608;SDS011;38503;48.544;12.142;2022-12-16T14:33:25;52.03;;;30.40;;
52608;SDS011;38503;48.544;12.142;2022-12-16T14:36:20;49.80;;;29.27;;
52608;SDS011;38503;48.544;12.142;2022-12-16T14:39:11;55.10;;;31.70;;
52608;SDS011;38503;48.544;12.142;2022-12-16T14:41:58;52.00;;;30.77;;
52608;SDS011;38503;48.544;12.142;2022-12-16T14:44:44;53.13;;;30.97;;
52608;SDS011;38503;48.544;12.142;2022-12-16T14:47:31;50.50;;;30.07;;
52608;SDS011;38503;48.544;12.142;2022-12-16T14:50:27;51.17;;;30.67;;
52608;SDS011;38503;48.544;12.142;2022-12-16T14:53:18;46.13;;;28.77;;
52608;SDS011;38503;48.544;12.142;2022-12-16T14:56:15;54.47;;;30.63;;
52608;SDS011;38503;48.544;12.142;2022-12-16T15:01:57;57.53;;;31.30;;
52608;SDS011;38503;48.544;12.142;2022-12-16T15:04:56;52.87;;;31.20;;
52608;SDS011;38503;48.544;12.142;2022-12-16T15:07:41;57.73;;;32.67;;
52608;SDS011;38503;48.544;12.142;2022-12-16T15:10:27;58.93;;;33.23;;
52608;SDS011;38503;48.544;12.142;2022-12-16T15:13:16;51.57;;;30.60;;
52608;SDS011;38503;48.544;12.142;2022-12-16T15:16:03;53.33;;;30.50;;
52608;SDS011;38503;48.544;12.142;2022-12-16T15:18:53;53.50;;;31.53;;
52608;SDS011;38503;48.544;12.142;2022-12-16T15:21:43;48.90;;;29.83;;
52608;SDS011;38503;48.544;12.142;2022-12-16T15:24:29;55.77;;;30.73;;
52608;SDS011;38503;48.544;12.142;2022-12-16T15:27:26;54.90;;;31.60;;
52608;SDS011;38503;48.544;12.142;2022-12-16T15:33:30;51.97;;;32.03;;
52608;SDS011;38503;48.544;12.142;2022-12-16T15:36:26;59.30;;;31.47;;
52608;SDS011;38503;48.544;12.142;2022-12-16T15:42:04;60.70;;;33.50;;
52608;SDS011;38503;48.544;12.142;2022-12-16T15:44:50;52.63;;;30.53;;
52608;SDS011;38503;48.544;12.142;2022-12-16T15:47:36;51.47;;;29.13;;
52608;SDS011;38503;48.544;12.142;2022-12-16T15:50:24;52.63;;;32.07;;
52608;SDS011;38503;48.544;12.142;2022-12-16T15:53:22;52.90;;;31.53;;
52608;SDS011;38503;48.544;12.142;2022-12-16T15:56:20;51.53;;;30.80;;
52608;SDS011;38503;48.544;12.142;2022-12-16T16:02:15;56.47;;;32.57;;
52608;SDS011;38503;48.544;12.142;2022-12-16T16:05:06;56.47;;;33.23;;
52608;SDS011;38503;48.544;12.142;2022-12-16T16:07:55;64.80;;;35.07;;
52608;SDS011;38503;48.544;12.142;2022-12-16T16:10:43;54.63;;;32.47;;
52608;SDS011;38503;48.544;12.142;2022-12-16T16:13:29;57.23;;;34.03;;
52608;SDS011;38503;48.544;12.142;2022-12-16T16:16:15;58.07;;;32.60;;
52608;SDS011;38503;48.544;12.142;2022-12-16T16:19:01;102.20;;;53.50;;
52608;SDS011;38503;48.544;12.142;2022-12-16T16:21:47;174.50;;;81.20;;
52608;SDS011;38503;48.544;12.142;2022-12-16T16:24:33;64.77;;;34.70;;
52608;SDS011;38503;48.544;12.142;2022-12-16T16:27:18;52.23;;;30.83;;
52608;SDS011;38503;48.544;12.142;2022-12-16T16:30:04;55.33;;;30.97;;
52608;SDS011;38503;48.544;12.142;2022-12-16T16:33:00;49.80;;;30.27;;
52608;SDS011;38503;48.544;12.142;2022-12-16T16:35:50;51.33;;;31.03;;
52608;SDS011;38503;48.544;12.142;2022-12-16T16:38:36;47.93;;;30.17;;
52608;SDS011;38503;48.544;12.142;2022-12-16T16:41:21;57.57;;;33.30;;
52608;SDS011;38503;48.544;12.142;2022-12-16T16:44:07;59.13;;;34.23;;
52608;SDS011;38503;48.544;12.142;2022-12-16T16:46:53;49.03;;;29.40;;
52608;SDS011;38503;48.544;12.142;2022-12-16T16:49:40;50.13;;;31.07;;
52608;SDS011;38503;48.544;12.142;2022-12-16T16:52:29;51.50;;;29.50;;
52608;SDS011;38503;48.544;12.142;2022-12-16T16:55:22;56.00;;;34.33;;
52608;SDS011;38503;48.544;12.142;2022-12-16T16:58:12;57.53;;;35.33;;
52608;SDS011;38503;48.544;12.142;2022-12-16T17:01:10;54.67;;;30.47;;
52608;SDS011;38503;48.544;12.142;2022-12-16T17:03:57;64.53;;;35.70;;
52608;SDS011;38503;48.544;12.142;2022-12-16T17:06:43;50.50;;;32.13;;
52608;SDS011;38503;48.544;12.142;2022-12-16T17:09:28;53.83;;;33.13;;
52608;SDS011;38503;48.544;12.142;2022-12-16T17:12:47;48.37;;;29.33;;
52608;SDS011;38503;48.544;12.142;2022-12-16T17:15:31;46.93;;;27.63;;
52608;SDS011;38503;48.544;12.142;2022-12-16T17:18:20;44.20;;;28.43;;
52608;SDS011;38503;48.544;12.142;2022-12-16T17:21:12;44.40;;;27.93;;
52608;SDS011;38503;48.544;12.142;2022-12-16T17:23:57;47.63;;;29.17;;
52608;SDS011;38503;48.544;12.142;2022-12-16T17:26:43;51.47;;;29.50;;
52608;SDS011;38503;48.544;12.142;2022-12-16T17:29:29;48.47;;;30.83;;
52608;SDS011;38503;48.544;12.142;2022-12-16T17:32:14;52.13;;;32.23;;
52608;SDS011;38503;48.544;12.142;2022-12-16T17:35:00;47.80;;;29.53;;
52608;SDS011;38503;48.544;12.142;2022-12-16T17:37:46;44.77;;;28.23;;
52608;SDS011;38503;48.544;12.142;2022-12-16T17:40:31;60.13;;;35.07;;